Time,TemperatureF,DewpointF,PressureIn,WindDirection,WindDirectionDegrees,WindSpeedMPH,WindSpeedGustMPH,Humidity,HourlyPrecipIn,Conditions,Clouds,dailyrainin,SolarRadiationWatts/m^2,SoftwareType,DateUTC
2013-11-15 00:01:00,41.0,22.0,-100.00,WSW,242,9.0,19.0,47,0.00,,,0.00,0.000000,,2013-11-15 07:01:00,
2013-11-15 00:12:00,41.0,22.0,-100.00,WSW,242,9.0,19.0,47,0.00,,,0.00,0.000000,,2013-11-15 07:12:00,
2013-11-15 00:21:00,41.0,22.0,-100.00,WSW,242,9.0,19.0,47,0.00,,,0.00,0.000000,,2013-11-15 07:21:00,
2013-11-15 00:30:00,41.0,22.0,-100.00,WSW,241,9.0,15.0,46,0.00,,,-99.99,0.000000,,2013-11-15 07:30:00,
2013-11-15 00:52:00,41.0,22.0,-100.00,WSW,241,9.0,15.0,46,0.00,,,-99.99,0.000000,,2013-11-15 07:52:00,
2013-11-15 01:01:00,41.0,22.0,-100.00,WSW,241,9.0,15.0,46,0.00,,,-99.99,0.000000,,2013-11-15 08:01:00,
2013-11-15 01:11:00,41.0,22.0,-100.00,WSW,241,9.0,15.0,46,0.00,,,-99.99,0.000000,,2013-11-15 08:11:00,
2013-11-15 01:21:00,41.0,22.0,-100.00,WSW,241,9.0,15.0,46,0.00,,,-99.99,0.000000,,2013-11-15 08:21:00,
2013-11-15 01:30:00,41.0,22.0,-100.00,WSW,254,10.0,21.0,47,0.00,,,0.00,0.000000,,2013-11-15 08:30:00,
2013-11-15 01:52:00,41.0,22.0,-100.00,WSW,254,10.0,21.0,47,0.00,,,0.00,0.000000,,2013-11-15 08:52:00,
2013-11-15 02:02:00,41.0,22.0,-100.00,WSW,254,10.0,21.0,47,0.00,,,0.00,0.000000,,2013-11-15 09:02:00,
2013-11-15 02:11:00,41.0,22.0,-100.00,WSW,254,10.0,21.0,47,0.00,,,0.00,0.000000,,2013-11-15 09:11:00,
2013-11-15 02:22:00,41.0,22.0,-100.00,WSW,254,10.0,21.0,47,0.00,,,0.00,0.000000,,2013-11-15 09:22:00,
2013-11-15 02:30:00,40.0,20.0,-100.00,WSW,250,9.0,21.0,44,0.00,,,0.00,0.000000,,2013-11-15 09:30:00,
2013-11-15 02:53:00,40.0,20.0,-100.00,WSW,250,9.0,21.0,44,0.00,,,0.00,0.000000,,2013-11-15 09:53:00,
2013-11-15 03:03:00,40.0,20.0,-100.00,WSW,250,9.0,21.0,44,0.00,,,0.00,0.000000,,2013-11-15 10:03:00,
2013-11-15 03:12:00,40.0,20.0,-100.00,WSW,250,9.0,21.0,44,0.00,,,0.00,0.000000,,2013-11-15 10:12:00,
2013-11-15 03:22:00,40.0,20.0,-100.00,WSW,250,9.0,21.0,44,0.00,,,0.00,0.000000,,2013-11-15 10:22:00,
2013-11-15 03:30:00,39.0,21.0,-100.00,West,275,9.0,16.0,48,0.00,,,0.00,0.000000,,2013-11-15 10:30:00,
2013-11-15 03:52:00,39.0,21.0,-100.00,West,275,9.0,16.0,48,0.00,,,0.00,0.000000,,2013-11-15 10:52:00,
2013-11-15 04:02:00,39.0,21.0,-100.00,West,275,9.0,16.0,48,0.00,,,0.00,0.000000,,2013-11-15 11:02:00,
2013-11-15 04:12:00,39.0,21.0,-100.00,West,275,9.0,16.0,48,0.00,,,0.00,0.000000,,2013-11-15 11:12:00,
2013-11-15 04:22:00,39.0,21.0,-100.00,West,275,9.0,16.0,48,0.00,,,0.00,0.000000,,2013-11-15 11:22:00,
2013-11-15 04:30:00,39.0,19.0,-100.00,WSW,254,8.0,20.0,45,0.00,,,0.00,0.000000,,2013-11-15 11:30:00,
2013-11-15 04:52:00,39.0,19.0,-100.00,WSW,254,8.0,20.0,45,0.00,,,0.00,0.000000,,2013-11-15 11:52:00,
2013-11-15 05:02:00,39.0,19.0,-100.00,WSW,254,8.0,20.0,45,0.00,,,0.00,0.000000,,2013-11-15 12:02:00,
2013-11-15 05:11:00,39.0,19.0,-100.00,WSW,254,8.0,20.0,45,0.00,,,0.00,0.000000,,2013-11-15 12:11:00,
2013-11-15 05:21:00,39.0,19.0,-100.00,WSW,254,8.0,20.0,45,0.00,,,0.00,0.000000,,2013-11-15 12:21:00,
2013-11-15 05:30:00,38.0,20.0,-100.00,West,260,9.0,14.0,47,0.00,,,0.00,0.000000,,2013-11-15 12:30:00,
2013-11-15 05:52:00,38.0,20.0,-100.00,West,260,9.0,14.0,47,0.00,,,0.00,0.000000,,2013-11-15 12:52:00,
2013-11-15 06:01:00,38.0,20.0,-100.00,West,260,9.0,14.0,47,0.00,,,0.00,0.000000,,2013-11-15 13:01:00,
2013-11-15 06:11:00,38.0,20.0,-100.00,West,260,9.0,14.0,47,0.00,,,0.00,0.000000,,2013-11-15 13:11:00,
2013-11-15 06:21:00,38.0,20.0,-100.00,West,260,9.0,14.0,47,0.00,,,0.00,0.000000,,2013-11-15 13:21:00,
2013-11-15 06:30:00,39.0,19.0,-100.00,West,261,12.0,19.0,45,0.00,,,0.00,0.000000,,2013-11-15 13:30:00,
2013-11-15 06:52:00,39.0,19.0,-100.00,West,261,12.0,19.0,45,0.00,,,0.00,0.000000,,2013-11-15 13:52:00,
2013-11-15 07:01:00,39.0,19.0,-100.00,West,261,12.0,19.0,45,0.00,,,0.00,0.000000,,2013-11-15 14:01:00,
2013-11-15 07:11:00,39.0,19.0,-100.00,West,261,12.0,19.0,45,0.00,,,0.00,0.000000,,2013-11-15 14:11:00,
2013-11-15 07:21:00,39.0,19.0,-100.00,West,261,12.0,19.0,45,0.00,,,0.00,0.000000,,2013-11-15 14:21:00,
2013-11-15 07:30:00,38.0,19.0,-100.00,West,263,7.0,19.0,46,0.00,,,0.00,1.000000,,2013-11-15 14:30:00,
2013-11-15 07:52:00,38.0,19.0,-100.00,West,263,7.0,19.0,46,0.00,,,0.00,1.000000,,2013-11-15 14:52:00,
2013-11-15 08:02:00,38.0,19.0,-100.00,West,263,7.0,19.0,46,0.00,,,0.00,1.000000,,2013-11-15 15:02:00,
2013-11-15 08:11:00,38.0,19.0,-100.00,West,263,7.0,19.0,46,0.00,,,0.00,1.000000,,2013-11-15 15:11:00,
2013-11-15 08:21:00,38.0,19.0,-100.00,West,263,7.0,19.0,46,0.00,,,0.00,1.000000,,2013-11-15 15:21:00,
2013-11-15 08:30:00,38.0,20.0,-100.00,WSW,251,6.0,12.0,48,0.00,,,0.00,28.000000,,2013-11-15 15:30:00,
2013-11-15 08:53:00,38.0,20.0,-100.00,WSW,251,6.0,12.0,48,0.00,,,0.00,28.000000,,2013-11-15 15:53:00,
2013-11-15 09:03:00,38.0,20.0,-100.00,WSW,251,6.0,12.0,48,0.00,,,0.00,28.000000,,2013-11-15 16:03:00,
2013-11-15 09:12:00,38.0,20.0,-100.00,WSW,251,6.0,12.0,48,0.00,,,0.00,28.000000,,2013-11-15 16:12:00,
2013-11-15 09:23:00,38.0,20.0,-100.00,WSW,251,6.0,12.0,48,0.00,,,0.00,28.000000,,2013-11-15 16:23:00,
2013-11-15 09:30:00,42.0,22.0,-100.00,WSW,238,8.0,15.0,44,0.00,,,0.00,200.000000,,2013-11-15 16:30:00,
2013-11-15 09:53:00,42.0,22.0,-100.00,WSW,238,8.0,15.0,44,0.00,,,0.00,200.000000,,2013-11-15 16:53:00,
2013-11-15 10:03:00,42.0,22.0,-100.00,WSW,238,8.0,15.0,44,0.00,,,0.00,200.000000,,2013-11-15 17:03:00,
2013-11-15 10:12:00,42.0,22.0,-100.00,WSW,238,8.0,15.0,44,0.00,,,0.00,200.000000,,2013-11-15 17:12:00,
2013-11-15 10:22:00,42.0,22.0,-100.00,WSW,238,8.0,15.0,44,0.00,,,0.00,200.000000,,2013-11-15 17:22:00,
2013-11-15 10:30:00,44.0,22.0,-100.00,West,265,13.0,23.0,41,0.00,,,0.00,308.000000,,2013-11-15 17:30:00,
2013-11-15 10:52:00,44.0,22.0,-100.00,West,265,13.0,23.0,41,0.00,,,0.00,308.000000,,2013-11-15 17:52:00,
2013-11-15 11:02:00,44.0,22.0,-100.00,West,265,13.0,23.0,41,0.00,,,0.00,308.000000,,2013-11-15 18:02:00,
2013-11-15 11:12:00,44.0,22.0,-100.00,West,265,13.0,23.0,41,0.00,,,0.00,308.000000,,2013-11-15 18:12:00,
2013-11-15 11:22:00,44.0,22.0,-100.00,West,265,13.0,23.0,41,0.00,,,0.00,308.000000,,2013-11-15 18:22:00,
2013-11-15 11:30:00,45.0,22.0,-100.00,West,262,13.0,24.0,39,0.00,,,0.00,417.000000,,2013-11-15 18:30:00,
2013-11-15 11:52:00,45.0,22.0,-100.00,West,262,13.0,24.0,39,0.00,,,0.00,417.000000,,2013-11-15 18:52:00,
2013-11-15 12:02:00,45.0,22.0,-100.00,West,262,13.0,24.0,39,0.00,,,0.00,417.000000,,2013-11-15 19:02:00,
2013-11-15 12:12:00,45.0,22.0,-100.00,West,262,13.0,24.0,39,0.00,,,0.00,417.000000,,2013-11-15 19:12:00,
2013-11-15 12:21:00,45.0,22.0,-100.00,West,262,13.0,24.0,39,0.00,,,0.00,417.000000,,2013-11-15 19:21:00,
2013-11-15 12:30:00,45.0,20.0,-100.00,West,270,13.0,27.0,36,0.00,,,0.00,441.000000,,2013-11-15 19:30:00,
2013-11-15 12:52:00,45.0,20.0,-100.00,West,270,13.0,27.0,36,0.00,,,0.00,441.000000,,2013-11-15 19:52:00,
2013-11-15 13:01:00,45.0,20.0,-100.00,West,270,13.0,27.0,36,0.00,,,0.00,441.000000,,2013-11-15 20:01:00,
2013-11-15 13:12:00,45.0,20.0,-100.00,West,270,13.0,27.0,36,0.00,,,0.00,441.000000,,2013-11-15 20:12:00,
2013-11-15 13:22:00,45.0,20.0,-100.00,West,270,13.0,27.0,36,0.00,,,0.00,441.000000,,2013-11-15 20:22:00,
2013-11-15 13:30:00,44.0,20.0,-100.00,West,259,20.0,27.0,38,0.00,,,0.00,392.000000,,2013-11-15 20:30:00,
2013-11-15 13:52:00,44.0,20.0,-100.00,West,259,20.0,27.0,38,0.00,,,0.00,392.000000,,2013-11-15 20:52:00,
2013-11-15 14:02:00,44.0,20.0,-100.00,West,259,20.0,27.0,38,0.00,,,0.00,392.000000,,2013-11-15 21:02:00,
2013-11-15 14:12:00,44.0,20.0,-100.00,West,259,20.0,27.0,38,0.00,,,0.00,392.000000,,2013-11-15 21:12:00,
2013-11-15 14:21:00,44.0,20.0,-100.00,West,259,20.0,27.0,38,0.00,,,0.00,392.000000,,2013-11-15 21:21:00,
2013-11-15 14:30:00,42.0,19.0,-100.00,WSW,255,14.0,27.0,39,0.00,,,0.00,104.000000,,2013-11-15 21:30:00,
2013-11-15 14:54:00,42.0,19.0,-100.00,WSW,255,14.0,27.0,39,0.00,,,0.00,104.000000,,2013-11-15 21:54:00,
2013-11-15 15:03:00,42.0,19.0,-100.00,WSW,255,14.0,27.0,39,0.00,,,0.00,104.000000,,2013-11-15 22:03:00,
2013-11-15 15:14:00,42.0,19.0,-100.00,WSW,255,14.0,27.0,39,0.00,,,0.00,104.000000,,2013-11-15 22:14:00,
2013-11-15 15:23:00,42.0,19.0,-100.00,WSW,255,14.0,27.0,39,0.00,,,0.00,104.000000,,2013-11-15 22:23:00,
2013-11-15 15:30:00,41.0,18.0,-100.00,WSW,251,12.0,22.0,39,0.00,,,0.00,18.000000,,2013-11-15 22:30:00,
2013-11-15 15:53:00,41.0,18.0,-100.00,WSW,251,12.0,22.0,39,0.00,,,0.00,18.000000,,2013-11-15 22:53:00,
2013-11-15 16:02:00,41.0,18.0,-100.00,WSW,251,12.0,22.0,39,0.00,,,0.00,18.000000,,2013-11-15 23:02:00,
2013-11-15 16:12:00,41.0,18.0,-100.00,WSW,251,12.0,22.0,39,0.00,,,0.00,18.000000,,2013-11-15 23:12:00,
2013-11-15 16:22:00,41.0,18.0,-100.00,WSW,251,12.0,22.0,39,0.00,,,0.00,18.000000,,2013-11-15 23:22:00,
2013-11-15 16:30:00,41.0,19.0,-100.00,West,259,15.0,23.0,41,0.00,,,0.00,29.000000,,2013-11-15 23:30:00,
2013-11-15 16:52:00,41.0,19.0,-100.00,West,259,15.0,23.0,41,0.00,,,0.00,29.000000,,2013-11-15 23:52:00,
2013-11-15 17:03:00,41.0,19.0,-100.00,West,259,15.0,23.0,41,0.00,,,0.00,29.000000,,2013-11-16 00:03:00,
2013-11-15 17:11:00,41.0,19.0,-100.00,West,259,15.0,23.0,41,0.00,,,0.00,29.000000,,2013-11-16 00:11:00,
2013-11-15 17:21:00,41.0,19.0,-100.00,West,259,15.0,23.0,41,0.00,,,0.00,29.000000,,2013-11-16 00:21:00,
2013-11-15 17:30:00,40.0,20.0,-100.00,West,263,13.0,24.0,45,0.00,,,0.00,10.000000,,2013-11-16 00:30:00,
2013-11-15 17:52:00,40.0,20.0,-100.00,West,263,13.0,24.0,45,0.00,,,0.00,10.000000,,2013-11-16 00:52:00,
2013-11-15 18:01:00,40.0,20.0,-100.00,West,263,13.0,24.0,45,0.00,,,0.00,10.000000,,2013-11-16 01:01:00,
2013-11-15 18:12:00,40.0,20.0,-100.00,West,263,13.0,24.0,45,0.00,,,0.00,10.000000,,2013-11-16 01:12:00,
2013-11-15 18:21:00,40.0,20.0,-100.00,West,263,13.0,24.0,45,0.00,,,0.00,10.000000,,2013-11-16 01:21:00,
2013-11-15 18:30:00,40.0,21.0,-100.00,WSW,258,13.0,29.0,47,0.00,,,0.00,0.000000,,2013-11-16 01:30:00,
2013-11-15 18:52:00,40.0,21.0,-100.00,WSW,258,13.0,29.0,47,0.00,,,0.00,0.000000,,2013-11-16 01:52:00,
2013-11-15 19:02:00,40.0,21.0,-100.00,WSW,258,13.0,29.0,47,0.00,,,0.00,0.000000,,2013-11-16 02:02:00,
2013-11-15 19:11:00,40.0,21.0,-100.00,WSW,258,13.0,29.0,47,0.00,,,0.00,0.000000,,2013-11-16 02:11:00,
2013-11-15 19:22:00,40.0,21.0,-100.00,WSW,258,13.0,29.0,47,0.00,,,0.00,0.000000,,2013-11-16 02:22:00,
2013-11-15 19:30:00,40.0,21.0,-100.00,WSW,255,9.0,20.0,46,0.00,,,0.00,0.000000,,2013-11-16 02:30:00,
2013-11-15 19:52:00,40.0,21.0,-100.00,WSW,255,9.0,20.0,46,0.00,,,0.00,0.000000,,2013-11-16 02:52:00,
2013-11-15 20:02:00,40.0,21.0,-100.00,WSW,255,9.0,20.0,46,0.00,,,0.00,0.000000,,2013-11-16 03:02:00,
2013-11-15 20:11:00,40.0,21.0,-100.00,WSW,255,9.0,20.0,46,0.00,,,0.00,0.000000,,2013-11-16 03:11:00,
2013-11-15 20:22:00,40.0,21.0,-100.00,WSW,255,9.0,20.0,46,0.00,,,0.00,0.000000,,2013-11-16 03:22:00,
2013-11-15 20:30:00,40.0,19.0,-100.00,WSW,255,20.0,31.0,43,0.00,,,0.00,0.000000,,2013-11-16 03:30:00,
2013-11-15 20:55:00,40.0,19.0,-100.00,WSW,255,20.0,31.0,43,0.00,,,0.00,0.000000,,2013-11-16 03:55:00,
2013-11-15 21:04:00,40.0,19.0,-100.00,WSW,255,20.0,31.0,43,0.00,,,0.00,0.000000,,2013-11-16 04:04:00,
2013-11-15 21:14:00,40.0,19.0,-100.00,WSW,255,20.0,31.0,43,0.00,,,0.00,0.000000,,2013-11-16 04:14:00,
2013-11-15 21:23:00,40.0,19.0,-100.00,WSW,255,20.0,31.0,43,0.00,,,0.00,0.000000,,2013-11-16 04:23:00,
2013-11-15 21:30:00,39.0,19.0,-100.00,West,260,15.0,24.0,45,0.00,,,0.00,0.000000,,2013-11-16 04:30:00,
2013-11-15 21:53:00,39.0,19.0,-100.00,West,260,15.0,24.0,45,0.00,,,0.00,0.000000,,2013-11-16 04:53:00,
2013-11-15 22:03:00,39.0,19.0,-100.00,West,260,15.0,24.0,45,0.00,,,0.00,0.000000,,2013-11-16 05:03:00,
2013-11-15 22:13:00,39.0,19.0,-100.00,West,260,15.0,24.0,45,0.00,,,0.00,0.000000,,2013-11-16 05:13:00,
2013-11-15 22:23:00,39.0,19.0,-100.00,West,260,15.0,24.0,45,0.00,,,0.00,0.000000,,2013-11-16 05:23:00,
2013-11-15 22:30:00,39.0,18.0,-100.00,West,276,13.0,26.0,43,0.00,,,0.00,0.000000,,2013-11-16 05:30:00,
2013-11-15 22:52:00,39.0,18.0,-100.00,West,276,13.0,26.0,43,0.00,,,0.00,0.000000,,2013-11-16 05:52:00,
2013-11-15 23:02:00,39.0,18.0,-100.00,West,276,13.0,26.0,43,0.00,,,0.00,0.000000,,2013-11-16 06:02:00,
2013-11-15 23:13:00,39.0,18.0,-100.00,West,276,13.0,26.0,43,0.00,,,0.00,0.000000,,2013-11-16 06:13:00,
2013-11-15 23:22:00,39.0,18.0,-100.00,West,276,13.0,26.0,43,0.00,,,0.00,0.000000,,2013-11-16 06:22:00,
2013-11-15 23:30:00,39.0,19.0,-100.00,West,259,12.0,17.0,45,0.00,,,0.00,0.000000,,2013-11-16 06:30:00,
2013-11-15 23:52:00,39.0,19.0,-100.00,West,259,12.0,17.0,45,0.00,,,0.00,0.000000,,2013-11-16 06:52:00,